createdAt,value
2023-02-07T00:01:07.937Z,100504.63
2023-02-07T00:03:35.939Z,100497.13
2023-02-07T00:06:08.312Z,100488.94
2023-02-07T00:11:37.868Z,100486.47
2023-02-07T00:14:07.642Z,100491.13
2023-02-07T00:16:35.953Z,100499.31
2023-02-07T00:19:04.042Z,100506.00
2023-02-07T00:21:32.407Z,100503.69
2023-02-07T00:24:00.340Z,100502.56
2023-02-07T00:26:28.518Z,100510.78
2023-02-07T00:28:57.092Z,100509.13
2023-02-07T00:31:27.550Z,100509.94
2023-02-07T00:33:56.286Z,100508.97
2023-02-07T00:36:25.315Z,100503.41
2023-02-07T00:38:56.911Z,100509.66
2023-02-07T00:41:24.891Z,100514.84
2023-02-07T00:43:52.920Z,100515.16
2023-02-07T00:46:21.086Z,100509.28
2023-02-07T00:48:50.582Z,100522.94
2023-02-07T00:51:18.557Z,100525.25
2023-02-07T00:53:48.117Z,100521.72
2023-02-07T00:56:17.051Z,100524.56
2023-02-07T00:58:45.274Z,100518.28
2023-02-07T01:01:13.678Z,100525.91
2023-02-07T01:03:41.633Z,100528.38
2023-02-07T01:06:11.259Z,100524.41
2023-02-07T01:08:39.421Z,100523.72
2023-02-07T01:11:08.663Z,100530.13
2023-02-07T01:13:36.788Z,100532.34
2023-02-07T01:16:05.354Z,100539.84
2023-02-07T01:18:33.386Z,100537.13
2023-02-07T01:21:01.476Z,100535.34
2023-02-07T01:23:30.757Z,100533.97
2023-02-07T01:25:58.675Z,100536.16
2023-02-07T01:28:27.133Z,100541.91
2023-02-07T01:30:55.166Z,100541.47
2023-02-07T01:33:23.161Z,100531.78
2023-02-07T01:35:51.235Z,100536.56
2023-02-07T01:38:19.413Z,100540.78
2023-02-07T01:40:48.899Z,100541.63
2023-02-07T01:43:18.813Z,100551.03
2023-02-07T01:45:46.954Z,100549.00
2023-02-07T01:48:16.491Z,100549.00
2023-02-07T01:53:30.239Z,100554.88
2023-02-07T01:56:03.573Z,100559.63
2023-02-07T01:58:31.729Z,100560.16
2023-02-07T02:01:00.253Z,100566.88
2023-02-07T02:03:28.483Z,100574.94
2023-02-07T02:05:56.809Z,100580.09
2023-02-07T02:08:25.546Z,100572.47
2023-02-07T02:11:03.812Z,100568.63
2023-02-07T02:13:35.439Z,100564.00
2023-02-07T02:16:06.281Z,100568.78
2023-02-07T02:18:40.044Z,100574.66
2023-02-07T02:21:25.620Z,100573.28
2023-02-07T02:24:12.890Z,100579.00
2023-02-07T02:26:47.125Z,100582.97
2023-02-07T02:29:29.887Z,100587.88
2023-02-07T02:32:16.120Z,100597.16
2023-02-07T02:34:48.383Z,100598.41
2023-02-07T02:37:21.250Z,100606.03
2023-02-07T02:39:53.666Z,100600.16
2023-02-07T02:42:27.253Z,100596.09
2023-02-07T02:44:58.423Z,100600.16
2023-02-07T02:47:28.514Z,100601.97
2023-02-07T02:49:58.155Z,100607.94
2023-02-07T02:52:40.455Z,100604.25
2023-02-07T02:55:16.204Z,100603.72
2023-02-07T02:57:53.117Z,100608.78
2023-02-07T03:00:34.254Z,100608.78
2023-02-07T03:03:16.658Z,100612.19
2023-02-07T03:05:51.547Z,100613.56
2023-02-07T03:08:26.640Z,100611.66
2023-02-07T03:10:58.942Z,100622.69
2023-02-07T03:13:30.300Z,100620.66
2023-02-07T03:16:04.860Z,100629.00
2023-02-07T03:18:40.523Z,100637.56
2023-02-07T03:21:13.818Z,100635.25
2023-02-07T03:23:42.274Z,100640.56
2023-02-07T03:26:10.592Z,100654.22
2023-02-07T03:28:40.585Z,100659.00
2023-02-07T03:31:10.307Z,100669.94
2023-02-07T03:33:39.470Z,100670.91
2023-02-07T03:36:11.331Z,100669.13
2023-02-07T03:38:40.622Z,100678.94
2023-02-07T03:46:41.651Z,100697.06
2023-02-07T03:49:09.753Z,100697.34
2023-02-07T03:51:37.984Z,100703.09
2023-02-07T03:54:07.443Z,100708.84
2023-02-07T03:56:35.311Z,100720.16
2023-02-07T03:59:03.233Z,100716.19
2023-02-07T04:01:31.244Z,100720.78
2023-02-07T04:03:59.199Z,100717.94
2023-02-07T04:06:27.288Z,100726.13
2023-02-07T04:08:55.419Z,100725.53
2023-02-07T04:11:24.792Z,100719.84
2023-02-07T04:13:52.926Z,100728.31
2023-02-07T04:16:20.933Z,100733.34
2023-02-07T04:18:49.083Z,100730.66
2023-02-07T04:21:17.062Z,100730.22
2023-02-07T04:23:45.106Z,100739.06
2023-02-07T04:26:13.144Z,100744.91
2023-02-07T04:28:42.675Z,100751.16
2023-02-07T04:31:10.797Z,100748.25
2023-02-07T04:33:40.297Z,100754.09
2023-02-07T04:36:08.743Z,100758.72
2023-02-07T04:38:36.795Z,100763.72
2023-02-07T04:41:05.589Z,100770.94
2023-02-07T04:43:34.654Z,100771.66
2023-02-07T04:46:04.642Z,100777.66
2023-02-07T04:48:32.763Z,100777.38
2023-02-07T04:51:00.874Z,100790.03
2023-02-07T04:53:29.085Z,100794.88
2023-02-07T04:55:57.004Z,100794.88
2023-02-07T04:58:25.115Z,100791.19
2023-02-07T05:00:53.820Z,100791.63
2023-02-07T05:03:23.453Z,100797.38
2023-02-07T05:05:54.156Z,100802.16
2023-02-07T05:08:22.845Z,100812.41
2023-02-07T05:10:53.245Z,100812.41
2023-02-07T05:13:21.284Z,100825.00
2023-02-07T05:15:49.506Z,100821.59
2023-02-07T05:18:17.783Z,100820.13
2023-02-07T05:20:47.162Z,100829.13
2023-02-07T05:23:15.743Z,100829.53
2023-02-07T05:25:43.706Z,100834.53
2023-02-07T05:28:11.761Z,100809.34
2023-02-07T05:30:39.973Z,100846.41
2023-02-07T05:33:07.332Z,100847.69
2023-02-07T05:35:36.580Z,100851.59
2023-02-07T05:38:07.758Z,100853.06
2023-02-07T05:40:36.079Z,100847.84
2023-02-07T05:43:04.905Z,100853.47
2023-02-07T05:45:33.048Z,100857.00
2023-02-07T05:48:01.175Z,100855.53
2023-02-07T05:50:29.461Z,100858.56
2023-02-07T05:52:57.511Z,100862.56
2023-02-07T05:55:27.205Z,100868.31
2023-02-07T05:57:55.274Z,100869.31
2023-02-07T06:00:23.587Z,100876.00
2023-02-07T06:02:51.617Z,100876.84
2023-02-07T06:05:21.686Z,100871.06
2023-02-07T06:07:49.758Z,100881.19
2023-02-07T06:10:17.706Z,100883.47
2023-02-07T06:12:47.147Z,100880.22
2023-02-07T06:15:15.242Z,100892.16
2023-02-07T06:17:43.553Z,100898.06
2023-02-07T06:20:12.261Z,100901.03
2023-02-07T06:22:40.414Z,100902.69
2023-02-07T06:25:11.962Z,100898.75
2023-02-07T06:27:40.589Z,100907.22
2023-02-07T06:30:12.748Z,100900.03
2023-02-07T06:32:40.932Z,100903.72
2023-02-07T06:35:09.420Z,100922.44
2023-02-07T06:37:37.370Z,100912.06
2023-02-07T06:40:05.814Z,100926.53
2023-02-07T06:42:33.928Z,100927.25
2023-02-07T06:45:02.165Z,100935.28
2023-02-07T06:47:32.828Z,100933.94
2023-02-07T06:50:01.080Z,100936.06
2023-02-07T06:52:29.270Z,100938.03
2023-02-07T06:54:57.368Z,100946.22
2023-02-07T06:57:25.455Z,100945.97
2023-02-07T06:59:53.609Z,100943.16
2023-02-07T07:02:21.625Z,100947.69
2023-02-07T07:04:51.410Z,100948.78
2023-02-07T07:07:19.370Z,100956.88
2023-02-07T07:15:34.471Z,100979.00
2023-02-07T07:18:02.530Z,100984.34
2023-02-07T07:20:32.135Z,100988.19
2023-02-07T07:23:00.095Z,100986.03
2023-02-07T07:25:28.280Z,100977.50
2023-02-07T07:27:56.381Z,100989.69
2023-02-07T07:30:24.420Z,100989.13
2023-02-07T07:32:53.038Z,100994.78
2023-02-07T07:35:21.235Z,100987.56
2023-02-07T07:37:50.599Z,100986.59
2023-02-07T07:40:18.645Z,100988.09
2023-02-07T07:42:46.721Z,100982.06
2023-02-07T07:45:14.771Z,100989.31
2023-02-07T07:47:42.925Z,100992.09
2023-02-07T07:50:10.943Z,100993.34
2023-02-07T07:52:39.072Z,100994.84
2023-02-07T07:55:09.298Z,100985.97
2023-02-07T07:57:37.901Z,100984.88
2023-02-07T08:00:06.561Z,101000.09
2023-02-07T08:02:34.607Z,101000.09
2023-02-07T08:05:02.664Z,101005.84
2023-02-07T08:07:31.006Z,101000.78
2023-02-07T08:09:59.178Z,101006.13
2023-02-07T08:12:28.526Z,101006.28
2023-02-07T08:14:56.869Z,101008.88
2023-02-07T08:17:25.083Z,101013.25
2023-02-07T08:19:53.256Z,101027.34
2023-02-07T08:22:21.841Z,101010.22
2023-02-07T08:24:49.879Z,101023.38
2023-02-07T08:27:18.313Z,101024.75
2023-02-07T08:29:47.725Z,101023.22
2023-02-07T08:32:15.906Z,101019.53
2023-02-07T08:34:45.017Z,101022.41
2023-02-07T08:37:13.415Z,101025.81
2023-02-07T08:39:41.738Z,101027.88
2023-02-07T08:42:10.033Z,101022.53
2023-02-07T08:44:38.479Z,101016.50
2023-02-07T08:47:08.059Z,101019.41
2023-02-07T08:49:36.356Z,101011.06
2023-02-07T08:52:04.583Z,101017.34
2023-02-07T08:54:32.971Z,101019.25
2023-02-07T08:57:01.093Z,101016.06
2023-02-07T08:59:29.219Z,101010.56
2023-02-07T09:01:57.417Z,101016.69
2023-02-07T09:04:27.077Z,101016.34
2023-02-07T09:06:55.191Z,101014.81
2023-02-07T09:09:23.290Z,101018.47
2023-02-07T09:11:51.434Z,101017.50
2023-02-07T09:14:21.518Z,101017.91
2023-02-07T09:16:49.620Z,101013.03
2023-02-07T09:19:17.776Z,101022.03
2023-02-07T09:21:47.314Z,101018.31
2023-02-07T09:24:15.407Z,101016.06
2023-02-07T09:26:43.582Z,101020.94
2023-02-07T09:29:12.506Z,101023.19
2023-02-07T09:31:40.599Z,101030.94
2023-02-07T09:34:08.666Z,101030.56
2023-02-07T09:36:37.057Z,101034.47
2023-02-07T09:39:07.146Z,101043.13
2023-02-07T09:41:42.025Z,101039.59
2023-02-07T09:44:16.562Z,101044.94
2023-02-07T09:46:48.702Z,101051.66
2023-02-07T09:49:22.508Z,101048.56
2023-02-07T09:51:52.272Z,101053.75
2023-02-07T09:54:24.332Z,101047.56
2023-02-07T09:56:52.800Z,101048.00
2023-02-07T10:01:58.894Z,101051.66
2023-02-07T10:04:31.857Z,101055.81
2023-02-07T10:07:01.034Z,101051.41
2023-02-07T10:09:31.969Z,101051.81
2023-02-07T10:12:05.817Z,101058.97
2023-02-07T10:14:44.100Z,101057.84
2023-02-07T10:17:31.033Z,101058.44
2023-02-07T10:20:04.677Z,101061.34
2023-02-07T10:22:37.516Z,101061.34
2023-02-07T10:25:16.468Z,101053.19
2023-02-07T10:27:51.532Z,101049.66
2023-02-07T10:30:22.818Z,101065.09
2023-02-07T10:32:52.332Z,101057.84
2023-02-07T10:35:21.848Z,101063.13
2023-02-07T10:37:52.003Z,101066.47
2023-02-07T10:40:24.445Z,101046.75
2023-02-07T10:42:57.599Z,101055.09
2023-02-07T10:45:25.728Z,101055.38
2023-02-07T10:47:53.622Z,101055.63
2023-02-07T10:50:29.763Z,101060.28
2023-02-07T10:52:59.184Z,101056.16
2023-02-07T10:55:39.369Z,101056.97
2023-02-07T10:58:21.222Z,101054.88
2023-02-07T11:00:51.784Z,101064.31
2023-02-07T11:03:21.202Z,101066.63
2023-02-07T11:05:55.592Z,101063.72
2023-02-07T11:08:26.907Z,101059.09
2023-02-07T11:10:57.809Z,101060.06
2023-02-07T11:13:28.147Z,101063.63
2023-02-07T11:15:58.359Z,101060.38
2023-02-07T11:18:38.874Z,101072.44
2023-02-07T11:21:08.680Z,101074.34
2023-02-07T11:23:36.703Z,101067.53
2023-02-07T11:26:06.599Z,101066.75
2023-02-07T11:28:35.093Z,101063.16
2023-02-07T11:31:07.107Z,101067.84
2023-02-07T11:33:36.502Z,101075.34
2023-02-07T11:36:11.591Z,101082.09
2023-02-07T11:38:40.487Z,101079.91
2023-02-07T11:41:17.240Z,101077.06
2023-02-07T11:43:53.409Z,101081.72
2023-02-07T11:46:21.504Z,101088.16
2023-02-07T11:48:51.244Z,101076.25
2023-02-07T11:51:20.049Z,101079.53
2023-02-07T11:53:50.045Z,101075.13
2023-02-07T11:56:25.175Z,101079.78
2023-02-07T11:58:54.353Z,101074.44
2023-02-07T12:01:25.380Z,101074.13
2023-02-07T12:03:59.033Z,101071.25
2023-02-07T12:06:31.220Z,101077.84
2023-02-07T12:08:59.751Z,101080.31
2023-02-07T12:11:34.147Z,101080.06
2023-02-07T12:14:05.102Z,101077.03
2023-02-07T12:16:36.416Z,101079.66
2023-02-07T12:19:06.833Z,101075.25
2023-02-07T12:21:37.536Z,101075.25
2023-02-07T12:24:07.285Z,101070.75
2023-02-07T12:26:40.740Z,101081.44
2023-02-07T12:29:14.898Z,101079.91
2023-02-07T12:31:48.563Z,101084.41
2023-02-07T12:34:20.932Z,101089.78
2023-02-07T12:36:52.801Z,101095.22
2023-02-07T12:42:31.507Z,101089.56
2023-02-07T12:45:01.138Z,101090.56
2023-02-07T12:47:36.029Z,101099.63
2023-02-07T12:50:14.982Z,101098.00
2023-02-07T12:52:50.920Z,101098.13
2023-02-07T12:55:24.786Z,101099.50
2023-02-07T12:57:58.687Z,101101.13
2023-02-07T13:00:30.375Z,101108.66
2023-02-07T13:03:06.501Z,101116.19
2023-02-07T13:05:46.394Z,101114.06
2023-02-07T13:08:21.339Z,101109.72
2023-02-07T13:10:55.467Z,101111.09
2023-02-07T13:13:26.698Z,101113.59
2023-02-07T13:15:58.309Z,101109.19
2023-02-07T13:18:35.660Z,101109.03
2023-02-07T13:21:09.189Z,101119.03
2023-02-07T13:23:38.660Z,101113.69
2023-02-07T13:26:10.551Z,101105.78
2023-02-07T13:28:44.070Z,101101.34
2023-02-07T13:31:15.234Z,101099.69
2023-02-07T13:33:43.647Z,101100.00
2023-02-07T13:36:15.890Z,101103.84
2023-02-07T13:38:55.742Z,101107.00
2023-02-07T13:41:42.813Z,101044.47
2023-02-07T13:44:20.502Z,101106.19
2023-02-07T13:47:03.363Z,101101.78
2023-02-07T13:49:38.407Z,101112.03
2023-02-07T13:52:11.864Z,101107.09
2023-02-07T13:54:43.536Z,101112.78
2023-02-07T13:57:37.857Z,101119.88
2023-02-07T14:00:08.922Z,101108.44
2023-02-07T14:02:42.352Z,101109.63
2023-02-07T14:05:12.144Z,101103.56
2023-02-07T14:07:40.222Z,101103.88
2023-02-07T14:10:09.367Z,101118.53
2023-02-07T14:12:40.964Z,101117.56
2023-02-07T14:15:23.746Z,101113.53
2023-02-07T14:18:00.391Z,101121.44
2023-02-07T14:20:49.612Z,101127.69
2023-02-07T14:23:19.179Z,101123.66
2023-02-07T14:25:47.268Z,101130.44
2023-02-07T14:28:32.105Z,101127.63
2023-02-07T14:31:21.903Z,101129.56
2023-02-07T14:34:04.750Z,101131.69
2023-02-07T14:36:34.351Z,101097.44
2023-02-07T14:39:04.607Z,101130.50
2023-02-07T14:41:34.239Z,101136.28
2023-02-07T14:44:09.631Z,101135.25
2023-02-07T14:46:40.114Z,101149.25
2023-02-07T14:49:12.824Z,101151.16
2023-02-07T14:51:43.756Z,101141.91
2023-02-07T14:54:16.751Z,101148.84
2023-02-07T14:57:02.576Z,101144.22
2023-02-07T14:59:34.800Z,101148.25
2023-02-07T15:02:17.702Z,101150.31
2023-02-07T15:04:45.785Z,101139.44
2023-02-07T15:07:15.213Z,101158.41
2023-02-07T15:09:46.185Z,101162.31
2023-02-07T15:12:26.990Z,101161.22
2023-02-07T15:14:57.248Z,101152.03
2023-02-07T15:17:42.615Z,101160.72
2023-02-07T15:20:15.721Z,101162.84
2023-02-07T15:22:48.449Z,101175.81
2023-02-07T15:25:16.823Z,101164.75
2023-02-07T15:27:59.058Z,101168.41
2023-02-07T15:30:27.400Z,101168.06
2023-02-07T15:32:55.769Z,101171.69
2023-02-07T15:35:26.933Z,101169.59
2023-02-07T15:37:57.172Z,101171.47
2023-02-07T15:40:26.786Z,101175.38
2023-02-07T15:42:56.537Z,101167.34
2023-02-07T15:45:25.901Z,101178.53
2023-02-07T15:47:58.620Z,101170.38
2023-02-07T15:50:27.774Z,101166.50
2023-02-07T15:52:59.402Z,101167.09
2023-02-07T15:55:31.982Z,101160.97
2023-02-07T15:57:59.999Z,101168.31
2023-02-07T16:00:29.638Z,101181.03
2023-02-07T16:02:59.479Z,101184.34
2023-02-07T16:05:29.092Z,101193.91
2023-02-07T16:07:59.238Z,101199.19
2023-02-07T16:10:34.951Z,101188.84
2023-02-07T16:13:03.383Z,101184.59
2023-02-07T16:15:33.429Z,101178.94
2023-02-07T16:18:02.228Z,101186.00
2023-02-07T16:20:31.380Z,101185.88
2023-02-07T16:23:02.049Z,101189.16
2023-02-07T16:25:31.243Z,101185.50
2023-02-07T16:27:59.390Z,101184.56
2023-02-07T16:30:30.621Z,101190.69
2023-02-07T16:32:58.603Z,101183.63
2023-02-07T16:35:27.466Z,101176.31
2023-02-07T16:37:55.596Z,101181.16
2023-02-07T16:40:26.861Z,101173.97
2023-02-07T16:42:56.024Z,101179.53
2023-02-07T16:45:25.266Z,101176.81
2023-02-07T16:47:53.632Z,101185.06
2023-02-07T16:56:00.089Z,101205.56
2023-02-07T16:58:29.624Z,101185.19
2023-02-07T17:00:57.970Z,101190.72
2023-02-07T17:03:26.257Z,101190.47
2023-02-07T17:05:54.260Z,101194.84
2023-02-07T17:08:27.871Z,101185.16
2023-02-07T17:10:59.282Z,101190.47
2023-02-07T17:13:29.008Z,101184.13
2023-02-07T17:15:58.391Z,101188.34
2023-02-07T17:18:26.566Z,101189.41
2023-02-07T17:20:55.837Z,101191.41
2023-02-07T17:23:25.404Z,101187.50
2023-02-07T17:25:53.498Z,101198.81
2023-02-07T17:28:21.646Z,101191.47
2023-02-07T17:30:51.828Z,101192.06
2023-02-07T17:33:19.928Z,101201.25
2023-02-07T17:35:47.952Z,101223.06
2023-02-07T17:38:16.000Z,101216.47
2023-02-07T17:40:44.036Z,101224.25
2023-02-07T17:43:12.201Z,101222.63
2023-02-07T17:45:40.143Z,101219.47
2023-02-07T17:48:12.458Z,101229.72
2023-02-07T17:50:42.272Z,101227.22
2023-02-07T17:53:11.168Z,101235.88
2023-02-07T17:55:39.735Z,101243.41
2023-02-07T17:58:08.136Z,101251.34
2023-02-07T18:00:38.275Z,101257.44
2023-02-07T18:03:07.100Z,101264.66
2023-02-07T18:05:36.609Z,101278.53
2023-02-07T18:08:04.797Z,101274.16
2023-02-07T18:10:33.751Z,101268.94
2023-02-07T18:13:02.008Z,101271.41
2023-02-07T18:15:30.338Z,101284.16
2023-02-07T18:17:58.781Z,101295.47
2023-02-07T18:20:28.048Z,101289.50
2023-02-07T18:22:58.123Z,101294.84
2023-02-07T18:25:27.147Z,101293.81
2023-02-07T18:27:55.409Z,101283.13
2023-02-07T18:30:24.353Z,101286.91
2023-02-07T18:32:52.412Z,101267.03
2023-02-07T18:35:21.464Z,101285.66
2023-02-07T18:37:49.422Z,101276.53
2023-02-07T18:40:19.069Z,101276.72
2023-02-07T18:42:47.286Z,101276.59
2023-02-07T18:45:15.447Z,101264.19
2023-02-07T18:47:43.741Z,101259.41
2023-02-07T18:50:13.102Z,101261.97
2023-02-07T18:52:41.288Z,101254.91
2023-02-07T18:55:09.822Z,101253.75
2023-02-07T18:57:39.261Z,101263.59
2023-02-07T19:00:09.596Z,101272.06
2023-02-07T19:02:37.977Z,101271.53
2023-02-07T19:05:06.343Z,101274.38
2023-02-07T19:07:34.696Z,101285.66
2023-02-07T19:10:03.097Z,101281.78
2023-02-07T19:12:31.066Z,101286.56
2023-02-07T19:15:00.509Z,101301.13
2023-02-07T19:17:29.011Z,101284.81
2023-02-07T19:19:56.943Z,101290.94
2023-02-07T19:22:35.352Z,101270.22
2023-02-07T19:25:04.082Z,101292.81
2023-02-07T19:27:32.044Z,101310.63
2023-02-07T19:30:01.457Z,101273.06
2023-02-07T19:32:29.461Z,101286.66
2023-02-07T19:34:57.569Z,101297.69
2023-02-07T19:37:25.475Z,101293.84
2023-02-07T19:39:56.432Z,101288.94
2023-02-07T19:42:25.514Z,101296.91
2023-02-07T19:44:53.587Z,101299.69
2023-02-07T19:47:23.227Z,101299.81
2023-02-07T19:49:52.516Z,101309.22
2023-02-07T19:52:20.681Z,101305.75
2023-02-07T19:54:48.640Z,101310.25
2023-02-07T19:57:17.143Z,101312.28
2023-02-07T19:59:45.717Z,101327.66
2023-02-07T20:02:14.319Z,101304.31
2023-02-07T20:04:44.022Z,101302.66
2023-02-07T20:07:12.174Z,101299.34
2023-02-07T20:09:40.162Z,101309.63
2023-02-07T20:12:08.684Z,101307.41
2023-02-07T20:14:36.828Z,101301.63
2023-02-07T20:17:04.967Z,101315.19
2023-02-07T20:19:32.920Z,101302.22
2023-02-07T20:22:02.520Z,101290.38
2023-02-07T20:24:30.630Z,101307.63
2023-02-07T20:26:58.644Z,101285.31
2023-02-07T20:35:18.372Z,101301.38
2023-02-07T20:37:47.834Z,101287.91
2023-02-07T20:40:16.095Z,101286.97
2023-02-07T20:42:44.137Z,101294.41
2023-02-07T20:45:12.407Z,101311.31
2023-02-07T20:47:40.406Z,101304.97
2023-02-07T20:50:08.596Z,101315.34
2023-02-07T20:52:37.821Z,101300.84
2023-02-07T20:55:08.516Z,101310.25
2023-02-07T20:57:36.619Z,101305.78
2023-02-07T21:00:05.252Z,101324.13
2023-02-07T21:02:33.587Z,101326.53
2023-02-07T21:05:01.602Z,101328.25
2023-02-07T21:07:29.809Z,101318.84
2023-02-07T21:09:57.936Z,101307.09
2023-02-07T21:12:27.598Z,101305.63
2023-02-07T21:14:57.383Z,101316.38
2023-02-07T21:17:25.578Z,101311.81
2023-02-07T21:19:53.502Z,101305.00
2023-02-07T21:22:23.200Z,101302.72
2023-02-07T21:24:51.321Z,101294.97
2023-02-07T21:27:19.407Z,101291.84
2023-02-07T21:29:48.793Z,101296.34
2023-02-07T21:32:17.034Z,101320.38
2023-02-07T21:34:45.407Z,101309.63
2023-02-07T21:37:13.377Z,101305.34
2023-02-07T21:39:41.421Z,101302.53
2023-02-07T21:42:09.405Z,101307.97
2023-02-07T21:44:37.631Z,101325.47
2023-02-07T21:47:07.209Z,101298.94
2023-02-07T21:49:35.050Z,101307.00
2023-02-07T21:52:03.204Z,101308.66
2023-02-07T21:54:31.184Z,101294.06
2023-02-07T21:56:59.083Z,101290.22
2023-02-07T21:59:27.398Z,101301.84
2023-02-07T22:01:55.603Z,101302.06
2023-02-07T22:04:25.062Z,101296.06
2023-02-07T22:06:53.090Z,101295.19
2023-02-07T22:09:22.090Z,101295.47
2023-02-07T22:11:50.476Z,101294.00
2023-02-07T22:14:19.132Z,101288.06
2023-02-07T22:16:47.285Z,101296.19
2023-02-07T22:19:17.354Z,101291.47
2023-02-07T22:21:46.687Z,101305.06
2023-02-07T22:24:15.530Z,101291.50
2023-02-07T22:26:43.428Z,101302.56
2023-02-07T22:29:11.514Z,101304.09
2023-02-07T22:31:40.510Z,101309.75
2023-02-07T22:34:09.478Z,101305.28
2023-02-07T22:36:38.918Z,101292.28
2023-02-07T22:39:09.122Z,101301.38
2023-02-07T22:41:37.450Z,101294.56
2023-02-07T22:44:05.529Z,101297.75
2023-02-07T22:46:33.764Z,101290.69
2023-02-07T22:49:01.878Z,101293.22
2023-02-07T22:51:30.776Z,101289.47
2023-02-07T22:53:59.770Z,101293.38
2023-02-07T22:56:29.636Z,101287.91
2023-02-07T22:58:57.766Z,101295.66
2023-02-07T23:01:26.683Z,101297.53
2023-02-07T23:03:55.206Z,101285.69
2023-02-07T23:06:23.770Z,101292.38
2023-02-07T23:08:52.190Z,101303.97
2023-02-07T23:11:21.861Z,101275.06
2023-02-07T23:13:51.775Z,101300.59
2023-02-07T23:16:21.016Z,101284.03
2023-02-07T23:18:49.201Z,101300.00
2023-02-07T23:21:17.981Z,101292.88
2023-02-07T23:23:46.603Z,101293.03
2023-02-07T23:26:15.705Z,101283.97
2023-02-07T23:28:44.256Z,101298.06
2023-02-07T23:31:15.108Z,101290.63
2023-02-07T23:33:43.374Z,101295.25
2023-02-07T23:36:11.857Z,101305.53
2023-02-07T23:38:40.234Z,101295.75
2023-02-07T23:41:08.785Z,101307.91
2023-02-07T23:43:36.926Z,101282.94
2023-02-07T23:46:04.974Z,101286.25
2023-02-07T23:48:37.764Z,101290.41
2023-02-07T23:51:07.043Z,101280.09
2023-02-07T23:53:35.425Z,101274.13
2023-02-07T23:56:04.665Z,101286.44
2023-02-07T23:58:33.107Z,101278.31
